createdAt,value
2018-07-07T00:01:46.244Z,99.41
2018-07-07T00:04:15.332Z,99.20
2018-07-07T00:06:44.248Z,99.96
2018-07-07T00:09:13.082Z,100.00
2018-07-07T00:11:41.747Z,100.00
2018-07-07T00:14:10.473Z,100.00
2018-07-07T00:16:39.472Z,100.00
2018-07-07T00:19:08.082Z,100.00
2018-07-07T00:21:37.029Z,100.00
2018-07-07T00:24:06.147Z,100.00
2018-07-07T00:26:34.821Z,100.00
2018-07-07T00:29:03.686Z,100.00
2018-07-07T00:31:32.340Z,100.00
2018-07-07T00:34:01.194Z,100.00
2018-07-07T00:36:30.177Z,100.00
2018-07-07T00:38:58.861Z,100.00
2018-07-07T00:41:27.636Z,100.00
2018-07-07T00:43:56.208Z,100.00
2018-07-07T00:46:24.877Z,100.00
2018-07-07T00:48:53.496Z,100.00
2018-07-07T00:51:22.158Z,100.00
2018-07-07T00:53:51.059Z,100.00
2018-07-07T00:56:19.913Z,100.00
2018-07-07T00:58:48.483Z,100.00
2018-07-07T01:01:17.118Z,100.00
2018-07-07T01:03:45.972Z,100.00
2018-07-07T01:06:28.713Z,100.00
2018-07-07T01:08:57.759Z,100.00
2018-07-07T01:11:26.451Z,100.00
2018-07-07T01:13:55.516Z,100.00
2018-07-07T01:16:24.091Z,100.00
2018-07-07T01:18:52.713Z,100.00
2018-07-07T01:21:21.281Z,100.00
2018-07-07T01:23:50.066Z,100.00
2018-07-07T01:26:18.729Z,100.00
2018-07-07T01:28:47.492Z,100.00
2018-07-07T01:31:16.207Z,100.00
2018-07-07T01:33:45.647Z,100.00
2018-07-07T01:36:14.602Z,100.00
2018-07-07T01:38:44.073Z,100.00
2018-07-07T01:41:12.772Z,100.00
2018-07-07T01:43:41.393Z,100.00
2018-07-07T01:46:10.108Z,100.00
2018-07-07T01:48:38.831Z,100.00
2018-07-07T01:51:07.308Z,100.00
2018-07-07T01:53:36.019Z,100.00
2018-07-07T01:56:04.576Z,100.00
2018-07-07T01:58:33.236Z,100.00
2018-07-07T02:01:02.168Z,100.00
2018-07-07T02:03:30.882Z,100.00
2018-07-07T02:05:59.451Z,100.00
2018-07-07T02:08:28.271Z,100.00
2018-07-07T02:10:57.973Z,100.00
2018-07-07T02:13:26.725Z,100.00
2018-07-07T02:15:55.404Z,100.00
2018-07-07T02:18:23.923Z,100.00
2018-07-07T02:20:52.604Z,100.00
2018-07-07T02:23:21.137Z,100.00
2018-07-07T02:25:50.391Z,100.00
2018-07-07T02:28:19.088Z,100.00
2018-07-07T02:30:47.742Z,100.00
2018-07-07T02:33:16.457Z,100.00
2018-07-07T02:35:45.223Z,100.00
2018-07-07T02:38:14.133Z,100.00
2018-07-07T02:40:42.748Z,100.00
2018-07-07T02:43:11.542Z,100.00
2018-07-07T02:45:40.251Z,100.00
2018-07-07T02:48:09.564Z,100.00
2018-07-07T02:50:39.294Z,100.00
2018-07-07T02:53:08.608Z,100.00
2018-07-07T02:55:37.275Z,100.00
2018-07-07T02:58:05.968Z,100.00
2018-07-07T03:00:34.710Z,100.00
2018-07-07T03:03:03.409Z,100.00
2018-07-07T03:05:32.986Z,100.00
2018-07-07T03:08:02.064Z,100.00
2018-07-07T03:10:30.789Z,100.00
2018-07-07T03:12:59.308Z,100.00
2018-07-07T03:15:28.594Z,100.00
2018-07-07T03:17:57.395Z,100.00
2018-07-07T03:20:26.241Z,100.00
2018-07-07T03:22:54.908Z,100.00
2018-07-07T03:25:23.669Z,100.00
2018-07-07T03:27:53.015Z,100.00
2018-07-07T03:30:22.189Z,100.00
2018-07-07T03:32:51.068Z,100.00
2018-07-07T03:35:19.751Z,100.00
2018-07-07T03:37:48.603Z,100.00
2018-07-07T03:40:17.265Z,100.00
2018-07-07T03:42:46.608Z,100.00
2018-07-07T03:45:15.510Z,100.00
2018-07-07T03:47:44.227Z,100.00
2018-07-07T03:50:13.040Z,100.00
2018-07-07T03:52:42.584Z,100.00
2018-07-07T03:55:11.191Z,100.00
2018-07-07T03:57:39.845Z,100.00
2018-07-07T04:00:09.080Z,100.00
2018-07-07T04:02:37.733Z,100.00
2018-07-07T04:05:06.542Z,100.00
2018-07-07T04:07:35.625Z,100.00
2018-07-07T04:10:04.369Z,100.00
2018-07-07T04:12:33.115Z,100.00
2018-07-07T04:15:02.496Z,100.00
2018-07-07T04:17:31.231Z,100.00
2018-07-07T04:19:59.949Z,100.00
2018-07-07T04:22:28.526Z,100.00
2018-07-07T04:24:57.475Z,100.00
2018-07-07T04:27:26.724Z,100.00
2018-07-07T04:29:55.408Z,100.00
2018-07-07T04:32:24.016Z,100.00
2018-07-07T04:34:52.815Z,100.00
2018-07-07T04:37:21.385Z,100.00
2018-07-07T04:39:50.114Z,100.00
2018-07-07T04:42:18.883Z,100.00
2018-07-07T04:44:48.389Z,99.80
2018-07-07T04:47:17.621Z,99.43
2018-07-07T04:49:46.163Z,99.81
2018-07-07T04:52:14.811Z,99.56
2018-07-07T04:54:43.503Z,98.55
2018-07-07T04:57:12.250Z,97.21
2018-07-07T04:59:40.982Z,95.96
2018-07-07T05:02:09.659Z,95.73
2018-07-07T05:04:38.491Z,95.37
2018-07-07T05:07:07.333Z,94.65
2018-07-07T05:09:36.007Z,94.74
2018-07-07T05:12:05.671Z,93.67
2018-07-07T05:14:34.220Z,93.36
2018-07-07T05:17:03.619Z,93.34
2018-07-07T05:19:32.353Z,92.74
2018-07-07T05:22:01.065Z,91.69
2018-07-07T05:24:29.684Z,91.89
2018-07-07T05:26:59.095Z,90.94
2018-07-07T05:29:27.653Z,88.86
2018-07-07T05:31:56.469Z,86.34
2018-07-07T05:34:25.106Z,83.74
2018-07-07T05:36:53.725Z,82.56
2018-07-07T05:39:22.443Z,79.14
2018-07-07T05:41:51.975Z,77.41
2018-07-07T05:44:20.655Z,76.87
2018-07-07T05:46:49.360Z,75.11
2018-07-07T05:49:17.999Z,73.14
2018-07-07T05:51:46.708Z,70.67
2018-07-07T05:54:15.428Z,68.75
2018-07-07T05:56:44.080Z,66.31
2018-07-07T05:59:13.401Z,66.25
2018-07-07T06:01:42.089Z,64.37
2018-07-07T06:04:10.705Z,63.87
2018-07-07T06:06:39.486Z,63.17
2018-07-07T06:09:08.828Z,62.16
2018-07-07T06:11:38.275Z,60.26
2018-07-07T06:14:06.892Z,59.08
2018-07-07T06:16:35.549Z,57.60
2018-07-07T06:19:04.345Z,56.08
2018-07-07T06:21:33.177Z,54.76
2018-07-07T06:24:02.490Z,53.79
2018-07-07T06:26:31.646Z,50.87
2018-07-07T06:29:00.515Z,52.59
2018-07-07T06:31:29.773Z,51.77
2018-07-07T06:33:58.495Z,50.03
2018-07-07T06:36:27.173Z,50.39
2018-07-07T06:38:56.701Z,48.32
2018-07-07T06:41:26.161Z,50.05
2018-07-07T06:43:54.790Z,49.37
2018-07-07T06:46:23.462Z,49.60
2018-07-07T06:48:52.344Z,48.31
2018-07-07T06:51:21.025Z,47.80
2018-07-07T06:53:49.845Z,48.85
2018-07-07T06:56:18.645Z,47.92
2018-07-07T06:58:47.272Z,48.56
2018-07-07T07:01:16.879Z,51.25
2018-07-07T07:03:46.153Z,48.36
2018-07-07T07:06:15.000Z,47.13
2018-07-07T07:08:43.690Z,49.31
2018-07-07T07:11:12.893Z,49.28
2018-07-07T07:13:41.571Z,48.55
2018-07-07T07:16:10.381Z,49.12
2018-07-07T07:18:39.055Z,47.80
2018-07-07T07:21:08.094Z,46.92
2018-07-07T07:23:36.867Z,45.85
2018-07-07T07:26:05.854Z,45.21
2018-07-07T07:28:34.544Z,44.06
2018-07-07T07:31:03.622Z,42.19
2018-07-07T07:33:32.435Z,40.46
2018-07-07T07:36:05.811Z,38.81
2018-07-07T07:38:34.667Z,39.50
2018-07-07T07:41:03.592Z,37.39
2018-07-07T07:43:32.206Z,37.19
2018-07-07T07:46:01.040Z,36.87
2018-07-07T07:48:30.192Z,35.74
2018-07-07T07:50:58.924Z,34.85
2018-07-07T07:53:27.599Z,34.32
2018-07-07T07:55:56.488Z,33.17
2018-07-07T07:58:25.139Z,33.01
2018-07-07T08:00:54.265Z,32.91
2018-07-07T08:03:23.146Z,31.85
2018-07-07T08:05:52.805Z,32.33
2018-07-07T08:08:23.015Z,31.37
2018-07-07T08:10:51.745Z,30.64
2018-07-07T08:13:21.434Z,29.72
2018-07-07T08:15:50.586Z,29.74
2018-07-07T08:18:19.593Z,29.47
2018-07-07T08:20:48.244Z,28.15
2018-07-07T08:23:16.879Z,28.36
2018-07-07T08:25:45.492Z,27.91
2018-07-07T08:28:14.559Z,25.39
2018-07-07T08:30:43.606Z,28.78
2018-07-07T08:33:13.101Z,27.53
2018-07-07T08:35:41.940Z,27.91
2018-07-07T08:38:15.200Z,26.55
2018-07-07T08:40:43.945Z,26.95
2018-07-07T08:43:15.897Z,26.36
2018-07-07T08:45:45.757Z,26.20
2018-07-07T08:48:14.910Z,24.73
2018-07-07T08:50:44.647Z,24.60
2018-07-07T08:53:13.960Z,23.93
2018-07-07T08:55:42.637Z,24.59
2018-07-07T08:58:11.426Z,24.25
2018-07-07T09:00:40.052Z,24.87
2018-07-07T09:03:08.746Z,25.15
2018-07-07T09:05:37.327Z,24.09
2018-07-07T09:08:06.167Z,22.36
2018-07-07T09:10:35.606Z,24.72
2018-07-07T09:13:04.594Z,23.17
2018-07-07T09:15:33.860Z,23.58
2018-07-07T09:18:02.620Z,26.26
2018-07-07T09:20:31.229Z,28.77
2018-07-07T09:23:00.217Z,30.70
2018-07-07T09:25:28.916Z,32.90
2018-07-07T09:27:57.824Z,35.55
2018-07-07T09:30:26.559Z,36.79
2018-07-07T09:32:55.477Z,38.36
2018-07-07T09:35:25.836Z,38.87
2018-07-07T09:38:33.265Z,40.12
2018-07-07T09:41:03.222Z,39.67
2018-07-07T09:43:32.416Z,37.36
2018-07-07T09:46:01.275Z,37.49
2018-07-07T09:48:30.141Z,38.31
2018-07-07T09:50:59.260Z,38.56
2018-07-07T09:53:28.243Z,37.90
2018-07-07T09:55:57.271Z,38.11
2018-07-07T09:58:26.912Z,39.79
2018-07-07T10:00:55.995Z,40.34
2018-07-07T10:03:24.846Z,34.94
2018-07-07T10:05:53.752Z,32.97
2018-07-07T10:08:22.721Z,30.47
2018-07-07T10:10:51.482Z,32.72
2018-07-07T10:13:21.195Z,35.19
2018-07-07T10:15:50.370Z,32.75
2018-07-07T10:18:19.396Z,31.50
2018-07-07T10:20:48.898Z,31.92
2018-07-07T10:23:17.595Z,32.65
2018-07-07T10:25:47.179Z,30.79
2018-07-07T10:28:15.926Z,30.40
2018-07-07T10:30:45.089Z,28.70
2018-07-07T10:33:14.091Z,26.24
2018-07-07T10:35:42.857Z,27.23
2018-07-07T10:38:12.618Z,28.54
2018-07-07T10:40:41.807Z,30.90
2018-07-07T10:43:11.005Z,32.06
2018-07-07T10:45:40.182Z,34.28
2018-07-07T10:48:09.410Z,34.96
2018-07-07T10:50:38.401Z,35.03
2018-07-07T10:53:07.674Z,33.15
2018-07-07T10:55:36.547Z,30.14
2018-07-07T10:58:05.402Z,27.54
2018-07-07T11:00:34.320Z,28.46
2018-07-07T11:03:02.948Z,28.70
2018-07-07T11:05:31.812Z,28.97
2018-07-07T11:08:00.597Z,31.21
2018-07-07T11:10:30.526Z,30.79
2018-07-07T11:12:59.128Z,31.86
2018-07-07T11:15:28.786Z,33.39
2018-07-07T11:17:57.546Z,34.82
2018-07-07T11:20:27.159Z,36.32
2018-07-07T11:22:57.409Z,36.24
2018-07-07T11:25:26.903Z,38.57
2018-07-07T11:27:55.561Z,40.34
2018-07-07T11:30:24.608Z,40.14
2018-07-07T11:32:53.615Z,41.05
2018-07-07T11:35:22.651Z,41.22
2018-07-07T11:37:52.647Z,41.16
2018-07-07T11:40:21.976Z,41.52
2018-07-07T11:42:50.808Z,38.92
2018-07-07T11:45:19.652Z,38.15
2018-07-07T11:47:48.693Z,37.02
2018-07-07T11:50:18.672Z,36.92
2018-07-07T11:52:47.441Z,37.20
2018-07-07T11:55:16.107Z,37.24
2018-07-07T11:57:45.029Z,37.45
2018-07-07T12:00:14.127Z,36.14
2018-07-07T12:02:43.135Z,36.93
2018-07-07T12:05:12.771Z,36.86
2018-07-07T12:07:43.477Z,39.19
2018-07-07T12:10:12.558Z,39.81
2018-07-07T12:12:41.390Z,41.41
2018-07-07T12:15:10.986Z,41.82
2018-07-07T12:17:40.329Z,41.91
2018-07-07T12:20:09.281Z,40.72
2018-07-07T12:22:38.455Z,39.55
2018-07-07T12:25:07.831Z,39.47
2018-07-07T12:27:36.746Z,40.13
2018-07-07T12:30:06.643Z,39.09
2018-07-07T12:32:35.477Z,39.92
2018-07-07T12:35:04.370Z,39.21
2018-07-07T12:37:33.251Z,39.63
2018-07-07T12:40:02.305Z,39.92
2018-07-07T12:42:31.198Z,39.15
2018-07-07T12:45:00.107Z,39.56
2018-07-07T12:47:28.882Z,39.58
2018-07-07T12:49:58.060Z,40.28
2018-07-07T12:52:27.020Z,40.85
2018-07-07T12:54:56.468Z,42.62
2018-07-07T12:57:25.327Z,41.91
2018-07-07T12:59:54.268Z,41.50
2018-07-07T13:02:23.096Z,42.08
2018-07-07T13:04:51.767Z,42.79
2018-07-07T13:07:20.794Z,42.50
2018-07-07T13:09:49.616Z,42.36
2018-07-07T13:12:18.318Z,42.30
2018-07-07T13:14:47.023Z,42.04
2018-07-07T13:17:15.932Z,42.94
2018-07-07T13:19:44.606Z,44.78
2018-07-07T13:22:13.594Z,47.13
2018-07-07T13:24:42.458Z,48.15
2018-07-07T13:27:11.234Z,47.38
2018-07-07T13:29:40.207Z,48.71
2018-07-07T13:32:10.007Z,46.38
2018-07-07T13:34:39.377Z,42.07
2018-07-07T13:37:08.513Z,42.22
2018-07-07T13:39:39.711Z,41.66
2018-07-07T13:42:10.119Z,42.61
2018-07-07T13:44:39.077Z,44.83
2018-07-07T13:47:08.549Z,45.98
2018-07-07T13:49:38.567Z,46.58
2018-07-07T13:52:07.683Z,42.04
2018-07-07T13:54:36.437Z,42.01
2018-07-07T13:57:05.569Z,42.58
2018-07-07T13:59:34.357Z,43.47
2018-07-07T14:02:03.819Z,43.69
2018-07-07T14:04:32.452Z,44.32
2018-07-07T14:07:01.041Z,43.80
2018-07-07T14:09:29.791Z,43.36
2018-07-07T14:11:58.534Z,42.72
2018-07-07T14:14:27.783Z,42.93
2018-07-07T14:16:56.648Z,42.48
2018-07-07T14:19:25.392Z,42.19
2018-07-07T14:21:54.372Z,44.10
2018-07-07T14:24:22.953Z,42.82
2018-07-07T14:26:51.869Z,43.68
2018-07-07T14:29:20.513Z,43.94
2018-07-07T14:31:49.497Z,42.70
2018-07-07T14:34:18.200Z,42.71
2018-07-07T14:36:47.024Z,40.74
2018-07-07T14:39:15.758Z,41.87
2018-07-07T14:41:44.418Z,41.31
2018-07-07T14:44:13.583Z,41.13
2018-07-07T14:46:42.379Z,42.03
2018-07-07T14:49:11.538Z,42.59
2018-07-07T14:51:40.382Z,43.61
2018-07-07T14:54:09.503Z,44.48
2018-07-07T14:56:38.260Z,43.65
2018-07-07T14:59:07.142Z,43.93
2018-07-07T15:01:35.937Z,44.75
2018-07-07T15:04:05.262Z,44.65
2018-07-07T15:06:33.964Z,45.33
2018-07-07T15:09:04.933Z,44.80
2018-07-07T15:11:33.729Z,44.00
2018-07-07T15:14:02.453Z,44.22
2018-07-07T15:16:31.307Z,43.27
2018-07-07T15:19:00.125Z,48.58
2018-07-07T15:21:29.018Z,46.91
2018-07-07T15:23:57.760Z,45.59
2018-07-07T15:26:26.522Z,42.83
2018-07-07T15:28:55.621Z,42.57
2018-07-07T15:31:24.853Z,42.28
2018-07-07T15:33:53.992Z,42.74
2018-07-07T15:36:22.827Z,42.17
2018-07-07T15:38:51.612Z,42.30
2018-07-07T15:41:20.332Z,42.59
2018-07-07T15:43:49.232Z,43.22
2018-07-07T15:46:18.283Z,42.20
2018-07-07T15:48:47.039Z,42.62
2018-07-07T15:51:15.927Z,42.45
2018-07-07T15:53:45.392Z,42.96
2018-07-07T15:56:14.218Z,42.74
2018-07-07T15:58:42.980Z,42.78
2018-07-07T16:01:11.660Z,43.53
2018-07-07T16:03:40.898Z,43.35
2018-07-07T16:06:10.038Z,42.66
2018-07-07T16:08:38.849Z,42.56
2018-07-07T16:11:08.263Z,42.74
2018-07-07T16:13:36.899Z,42.62
2018-07-07T16:16:05.797Z,42.21
2018-07-07T16:18:34.552Z,43.06
2018-07-07T16:21:03.349Z,42.31
2018-07-07T16:23:32.321Z,41.44
2018-07-07T16:26:01.980Z,41.71
2018-07-07T16:28:31.206Z,42.24
2018-07-07T16:31:00.404Z,42.83
2018-07-07T16:33:30.183Z,43.25
2018-07-07T16:35:59.363Z,42.24
2018-07-07T16:38:28.618Z,42.47
2018-07-07T16:40:57.944Z,42.42
2018-07-07T16:43:27.053Z,42.45
2018-07-07T16:45:55.919Z,42.66
2018-07-07T16:48:24.562Z,42.52
2018-07-07T16:50:53.504Z,42.27
2018-07-07T16:53:22.383Z,42.84
2018-07-07T16:55:51.256Z,42.92
2018-07-07T16:58:20.977Z,42.71
2018-07-07T17:00:49.950Z,43.51
2018-07-07T17:03:19.004Z,42.92
2018-07-07T17:05:48.504Z,42.42
2018-07-07T17:08:17.639Z,42.77
2018-07-07T17:10:46.784Z,43.26
2018-07-07T17:13:16.344Z,43.27
2018-07-07T17:15:45.778Z,42.81
2018-07-07T17:18:15.231Z,42.07
2018-07-07T17:20:43.945Z,43.18
2018-07-07T17:23:12.895Z,42.81
2018-07-07T17:25:41.766Z,43.09
2018-07-07T17:28:10.625Z,42.66
2018-07-07T17:30:39.887Z,42.62
2018-07-07T17:33:09.031Z,43.10
2018-07-07T17:35:37.924Z,42.90
2018-07-07T17:38:06.952Z,42.88
2018-07-07T17:40:36.768Z,43.16
2018-07-07T17:43:05.818Z,42.12
2018-07-07T17:45:34.488Z,42.34
2018-07-07T17:48:03.278Z,42.02
2018-07-07T17:50:32.437Z,42.99
2018-07-07T17:53:01.866Z,44.27
2018-07-07T17:55:30.849Z,45.47
2018-07-07T17:58:00.050Z,44.56
2018-07-07T18:00:29.030Z,44.96
2018-07-07T18:02:58.071Z,44.86
2018-07-07T18:05:26.920Z,45.15
2018-07-07T18:07:56.175Z,43.99
2018-07-07T18:10:25.184Z,43.60
2018-07-07T18:12:54.080Z,43.83
2018-07-07T18:15:22.930Z,43.77
2018-07-07T18:17:51.980Z,43.16
2018-07-07T18:20:20.950Z,43.31
2018-07-07T18:22:49.733Z,43.30
2018-07-07T18:25:18.494Z,43.90
2018-07-07T18:27:47.186Z,43.70
2018-07-07T18:30:16.214Z,44.31
2018-07-07T18:32:44.974Z,44.74
2018-07-07T18:35:13.691Z,45.07
2018-07-07T18:37:42.569Z,45.58
2018-07-07T18:40:11.209Z,45.76
2018-07-07T18:42:39.904Z,46.23
2018-07-07T18:45:09.488Z,46.42
2018-07-07T18:47:38.430Z,47.39
2018-07-07T18:50:07.240Z,48.18
2018-07-07T18:52:35.914Z,49.35
2018-07-07T18:55:04.864Z,50.31
2018-07-07T18:57:33.671Z,50.45
2018-07-07T19:00:02.664Z,50.85
2018-07-07T19:02:31.738Z,51.47
2018-07-07T19:05:00.461Z,52.47
2018-07-07T19:07:29.438Z,53.33
2018-07-07T19:09:58.274Z,55.48
2018-07-07T19:12:27.044Z,56.74
2018-07-07T19:14:59.916Z,58.11
2018-07-07T19:17:28.809Z,59.92
2018-07-07T19:19:57.388Z,61.12
2018-07-07T19:22:31.423Z,62.80
2018-07-07T19:25:05.727Z,63.13
2018-07-07T19:27:34.457Z,63.19
2018-07-07T19:30:03.800Z,63.05
2018-07-07T19:32:38.020Z,64.86
2018-07-07T19:35:12.070Z,65.19
2018-07-07T19:37:41.725Z,66.41
2018-07-07T19:40:10.871Z,67.19
2018-07-07T19:42:40.768Z,67.17
2018-07-07T19:45:09.908Z,68.38
2018-07-07T19:47:39.510Z,67.97
2018-07-07T19:50:10.005Z,69.29
2018-07-07T19:52:39.124Z,69.35
2018-07-07T19:55:08.228Z,69.74
2018-07-07T19:57:37.033Z,70.84
2018-07-07T20:00:06.105Z,72.30
2018-07-07T20:02:35.153Z,72.35
2018-07-07T20:05:03.946Z,72.05
2018-07-07T20:07:32.962Z,71.57
2018-07-07T20:10:01.790Z,72.13
2018-07-07T20:12:30.764Z,72.40
2018-07-07T20:14:59.637Z,73.00
2018-07-07T20:17:39.731Z,73.40
2018-07-07T20:20:44.532Z,73.52
2018-07-07T20:23:17.705Z,73.28
2018-07-07T20:25:51.823Z,73.32
2018-07-07T20:28:25.897Z,73.73
2018-07-07T20:30:58.445Z,73.92
2018-07-07T20:33:28.275Z,74.77
2018-07-07T20:39:30.018Z,75.55
2018-07-07T20:41:58.778Z,75.59
2018-07-07T20:44:27.889Z,76.29
2018-07-07T20:46:57.216Z,75.96
2018-07-07T20:49:27.319Z,76.66
2018-07-07T20:51:56.146Z,76.59
2018-07-07T20:54:25.372Z,76.58
2018-07-07T20:56:54.555Z,77.43
2018-07-07T20:59:23.676Z,77.60
2018-07-07T21:01:52.571Z,77.88
2018-07-07T21:04:21.806Z,77.87
2018-07-07T21:06:51.464Z,78.46
2018-07-07T21:09:20.480Z,78.56
2018-07-07T21:11:49.640Z,79.31
2018-07-07T21:15:22.704Z,79.61
2018-07-07T21:17:52.259Z,79.47
2018-07-07T21:20:21.796Z,80.23
2018-07-07T21:22:50.925Z,80.63
2018-07-07T21:25:20.395Z,81.10
2018-07-07T21:27:49.061Z,81.05
2018-07-07T21:30:29.836Z,80.75
2018-07-07T21:32:58.670Z,80.48
2018-07-07T21:35:27.949Z,80.70
2018-07-07T21:37:57.019Z,81.03
2018-07-07T21:40:25.916Z,81.46
2018-07-07T21:42:54.925Z,81.49
2018-07-07T21:45:23.868Z,81.99
2018-07-07T21:47:53.176Z,82.44
2018-07-07T21:50:23.206Z,82.18
2018-07-07T21:52:51.929Z,82.31
2018-07-07T21:55:21.816Z,82.33
2018-07-07T21:57:55.857Z,82.43
2018-07-07T22:00:30.154Z,82.76
2018-07-07T22:03:03.899Z,82.63
2018-07-07T22:05:39.060Z,82.88
2018-07-07T22:08:13.965Z,83.27
2018-07-07T22:10:42.860Z,84.42
2018-07-07T22:13:12.496Z,84.08
2018-07-07T22:15:41.509Z,84.41
2018-07-07T22:18:10.429Z,85.01
2018-07-07T22:20:39.321Z,85.17
2018-07-07T22:23:08.129Z,85.35
2018-07-07T22:25:37.691Z,85.45
2018-07-07T22:28:07.244Z,85.88
2018-07-07T22:30:36.226Z,85.81
2018-07-07T22:33:10.744Z,85.84
2018-07-07T22:35:44.612Z,86.53
2018-07-07T22:38:18.865Z,86.60
2018-07-07T22:40:47.789Z,86.65
2018-07-07T22:43:16.435Z,87.20
2018-07-07T22:45:45.251Z,87.62
2018-07-07T22:48:13.953Z,87.12
2018-07-07T22:50:42.740Z,87.28
2018-07-07T22:53:11.560Z,87.73
2018-07-07T22:55:40.548Z,87.75
2018-07-07T22:58:09.154Z,87.71
2018-07-07T23:00:38.152Z,87.80
2018-07-07T23:03:06.884Z,88.02
2018-07-07T23:05:35.719Z,88.51
2018-07-07T23:08:04.469Z,88.94
2018-07-07T23:10:33.340Z,88.54
2018-07-07T23:13:02.410Z,88.84
2018-07-07T23:15:31.991Z,89.23
2018-07-07T23:18:01.105Z,89.01
2018-07-07T23:20:30.297Z,89.26
2018-07-07T23:22:59.836Z,89.21
2018-07-07T23:25:28.516Z,88.91
2018-07-07T23:27:57.301Z,89.33
2018-07-07T23:30:27.130Z,89.28
2018-07-07T23:32:55.999Z,89.28
2018-07-07T23:35:24.965Z,89.23
2018-07-07T23:37:53.745Z,89.30
2018-07-07T23:40:22.651Z,89.58
2018-07-07T23:42:51.387Z,89.50
2018-07-07T23:45:20.472Z,89.98
2018-07-07T23:47:49.415Z,89.70
2018-07-07T23:50:18.250Z,89.81
2018-07-07T23:52:47.165Z,89.84
2018-07-07T23:55:16.265Z,90.17
2018-07-07T23:57:45.114Z,90.37
